Time;durP1;ratioP1;P1;durP2;ratioP2;P2;SDS_P1;SDS_P2;PMS_P1;PMS_P2;Temp;Humidity;BMP_temperature;BMP_pressure;BME280_temperature;BME280_humidity;BME280_pressure;Samples;Min_cycle;Max_cycle;Signal;HPM_P1;HPM_P2
2021/03/08 00:01:16;;;;;;;5.35;2.05;;;;;;;;;;4912247;29;20091;-77
2021/03/08 00:03:42;;;;;;;26.42;2.30;;;;;;;;;;4912976;29;20520;-77
2021/03/08 00:06:09;;;;;;;7.13;1.77;;;;;;;;;;4913742;29;20671;-77
2021/03/08 00:08:36;;;;;;;7.95;2.20;;;;;;;;;;4913970;29;20103;-77
2021/03/08 00:11:03;;;;;;;8.85;1.73;;;;;;;;;;4913366;29;20131;-77
2021/03/08 00:13:29;;;;;;;5.78;1.83;;;;;;;;;;4912365;29;20091;-77
2021/03/08 00:15:57;;;;;;;8.68;2.00;;;;;;;;;;4913769;29;20090;-77
2021/03/08 00:18:24;;;;;;;4.80;1.65;;;;;;;;;;4913241;29;20079;-76
2021/03/08 00:20:52;;;;;;;7.38;1.95;;;;;;;;;;4914014;29;20055;-77
2021/03/08 00:23:19;;;;;;;6.50;1.90;;;;;;;;;;4912763;29;20156;-77
2021/03/08 00:25:46;;;;;;;8.02;2.08;;;;;;;;;;4913580;29;20076;-77
2021/03/08 00:28:12;;;;;;;8.65;2.10;;;;;;;;;;4912143;29;20052;-77
2021/03/08 00:30:39;;;;;;;8.18;2.40;;;;;;;;;;4911655;29;20112;-77
2021/03/08 00:33:06;;;;;;;9.20;1.90;;;;;;;;;;4913577;29;20072;-77
2021/03/08 00:35:33;;;;;;;5.78;2.08;;;;;;;;;;4913713;29;20060;-77
2021/03/08 00:38:04;;;;;;;9.57;2.13;;;;;;;;;;4913790;29;20063;-77
2021/03/08 00:40:31;;;;;;;6.10;2.20;;;;;;;;;;4911504;29;20083;-77
2021/03/08 00:42:58;;;;;;;19.05;2.70;;;;;;;;;;4913364;29;20211;-77
2021/03/08 00:45:25;;;;;;;5.60;1.77;;;;;;;;;;4911572;29;20045;-77
2021/03/08 00:47:51;;;;;;;9.82;2.15;;;;;;;;;;4912874;29;20103;-77
2021/03/08 00:50:20;;;;;;;18.60;2.78;;;;;;;;;;4910783;29;20044;-77
2021/03/08 00:52:47;;;;;;;11.13;1.90;;;;;;;;;;4912429;29;20056;-76
2021/03/08 00:55:14;;;;;;;18.23;2.33;;;;;;;;;;4912249;29;20098;-76
2021/03/08 00:57:42;;;;;;;15.82;2.67;;;;;;;;;;4911167;29;20052;-76
2021/03/08 01:00:10;;;;;;;15.73;2.33;;;;;;;;;;4911676;29;20088;-76
2021/03/08 01:02:37;;;;;;;12.13;2.45;;;;;;;;;;4910807;29;20067;-76
2021/03/08 01:05:04;;;;;;;9.82;2.17;;;;;;;;;;4902963;29;20740;-77
2021/03/08 01:07:31;;;;;;;12.13;1.95;;;;;;;;;;4911713;29;20553;-76
2021/03/08 01:09:58;;;;;;;8.15;2.17;;;;;;;;;;4909894;29;20059;-77
2021/03/08 01:12:24;;;;;;;14.57;2.42;;;;;;;;;;4911042;29;20627;-76
2021/03/08 01:14:51;;;;;;;6.35;2.10;;;;;;;;;;4913414;29;20134;-76
2021/03/08 01:17:18;;;;;;;9.45;1.73;;;;;;;;;;4908510;29;20955;-77
2021/03/08 01:19:45;;;;;;;9.23;2.65;;;;;;;;;;4902905;29;20454;-76
2021/03/08 01:22:12;;;;;;;5.18;1.67;;;;;;;;;;4910800;29;20453;-77
2021/03/08 01:24:39;;;;;;;14.00;2.38;;;;;;;;;;4912371;29;20099;-77
2021/03/08 01:27:06;;;;;;;6.38;1.85;;;;;;;;;;4912087;29;20622;-77
2021/03/08 01:29:33;;;;;;;7.63;2.28;;;;;;;;;;4912361;29;20115;-76
2021/03/08 01:32:00;;;;;;;7.38;1.73;;;;;;;;;;4912917;29;20132;-76
2021/03/08 01:34:27;;;;;;;10.07;2.30;;;;;;;;;;4911268;29;20127;-76
2021/03/08 01:36:53;;;;;;;15.45;3.15;;;;;;;;;;4910346;29;20052;-77
2021/03/08 01:39:20;;;;;;;10.93;2.92;;;;;;;;;;4911550;29;20100;-76
2021/03/08 01:41:47;;;;;;;10.27;2.38;;;;;;;;;;4911201;29;20087;-77
2021/03/08 01:44:14;;;;;;;8.02;2.05;;;;;;;;;;4913121;29;20124;-76
2021/03/08 01:46:40;;;;;;;7.03;2.22;;;;;;;;;;4912616;29;20513;-76
2021/03/08 01:49:07;;;;;;;5.32;1.92;;;;;;;;;;4912144;29;20711;-76
2021/03/08 01:51:34;;;;;;;18.42;2.50;;;;;;;;;;4910310;29;20143;-76
2021/03/08 01:54:01;;;;;;;9.48;2.40;;;;;;;;;;4912279;29;20134;-77
2021/03/08 01:56:29;;;;;;;5.40;1.73;;;;;;;;;;4911151;29;20087;-76
2021/03/08 01:58:55;;;;;;;9.43;2.00;;;;;;;;;;4910960;29;20095;-76
2021/03/08 02:01:22;;;;;;;5.53;1.90;;;;;;;;;;4911477;29;20048;-76
2021/03/08 02:03:49;;;;;;;8.80;2.10;;;;;;;;;;4911369;29;20508;-77
2021/03/08 02:06:16;;;;;;;5.70;1.70;;;;;;;;;;4912147;29;20109;-77
2021/03/08 02:08:43;;;;;;;9.43;2.25;;;;;;;;;;4911020;29;20045;-76
2021/03/08 02:11:09;;;;;;;6.88;2.10;;;;;;;;;;4912038;29;20088;-76
2021/03/08 02:13:50;;;;;;;13.55;2.53;;;;;;;;;;4912261;29;20056;-76
2021/03/08 02:16:29;;;;;;;6.22;2.08;;;;;;;;;;4910201;29;20143;-76
2021/03/08 02:19:02;;;;;;;7.10;2.15;;;;;;;;;;4911035;29;20091;-76
2021/03/08 02:21:32;;;;;;;13.77;2.42;;;;;;;;;;4909942;29;20058;-76
2021/03/08 02:24:18;;;;;;;8.85;2.00;;;;;;;;;;4911541;29;20106;-75
2021/03/08 02:26:52;;;;;;;14.63;2.22;;;;;;;;;;4910769;29;20055;-76
2021/03/08 02:29:19;;;;;;;;;;;;;;;;;;4911360;29;20165;-76
2021/03/08 02:31:47;;;;;;;9.98;2.33;;;;;;;;;;4910147;29;19933;-76
2021/03/08 02:34:17;;;;;;;9.13;2.47;;;;;;;;;;4910625;29;20173;-75
2021/03/08 02:36:46;;;;;;;6.80;2.35;;;;;;;;;;4912083;29;20139;-76
2021/03/08 02:39:18;;;;;;;8.40;1.90;;;;;;;;;;4910440;29;20163;-76
2021/03/08 02:41:48;;;;;;;9.48;1.95;;;;;;;;;;4912416;29;20079;-76
2021/03/08 02:44:16;;;;;;;7.70;2.17;;;;;;;;;;4912025;29;20095;-75
2021/03/08 02:46:45;;;;;;;5.90;2.50;;;;;;;;;;4911428;29;20138;-75
2021/03/08 02:49:14;;;;;;;5.45;2.20;;;;;;;;;;4913351;29;20142;-75
2021/03/08 02:51:47;;;;;;;9.15;2.25;;;;;;;;;;4915697;29;20145;-76
2021/03/08 02:54:16;;;;;;;12.50;2.25;;;;;;;;;;4914712;29;20149;-76
2021/03/08 02:56:43;;;;;;;7.63;1.98;;;;;;;;;;4914513;29;20055;-76
2021/03/08 02:59:12;;;;;;;8.40;2.05;;;;;;;;;;4915760;29;20087;-76
2021/03/08 03:01:40;;;;;;;6.28;2.45;;;;;;;;;;4914727;29;20461;-75
2021/03/08 03:04:07;;;;;;;13.13;2.85;;;;;;;;;;4913576;29;20079;-76
2021/03/08 03:06:36;;;;;;;8.52;2.80;;;;;;;;;;4915378;29;20060;-76
2021/03/08 03:09:04;;;;;;;7.80;1.85;;;;;;;;;;4912683;29;20083;-76
2021/03/08 03:11:31;;;;;;;6.18;2.33;;;;;;;;;;4913310;29;20091;-76
2021/03/08 03:13:59;;;;;;;7.18;2.58;;;;;;;;;;4915231;29;20143;-76
2021/03/08 03:16:26;;;;;;;11.55;2.85;;;;;;;;;;4913970;29;20657;-75
2021/03/08 03:18:55;;;;;;;11.38;2.88;;;;;;;;;;4914302;29;20139;-76
2021/03/08 03:21:24;;;;;;;12.95;3.03;;;;;;;;;;4895169;29;20514;-76
2021/03/08 03:23:52;;;;;;;11.85;2.78;;;;;;;;;;4906253;29;20063;-75
2021/03/08 03:26:23;;;;;;;8.55;2.38;;;;;;;;;;4914611;29;20048;-76
2021/03/08 03:28:50;;;;;;;10.55;3.15;;;;;;;;;;4914597;29;20076;-75
2021/03/08 03:31:29;;;;;;;10.55;2.25;;;;;;;;;;4914244;29;20052;-76
2021/03/08 03:33:57;;;;;;;6.35;2.97;;;;;;;;;;4914478;29;20076;-76
2021/03/08 03:36:24;;;;;;;7.75;3.40;;;;;;;;;;4914924;29;20055;-75
2021/03/08 03:38:53;;;;;;;7.90;3.15;;;;;;;;;;4913817;29;20111;-75
2021/03/08 03:41:19;;;;;;;9.00;2.95;;;;;;;;;;4913380;29;20076;-75
2021/03/08 03:43:46;;;;;;;12.18;2.65;;;;;;;;;;4915090;29;20052;-75
2021/03/08 03:46:13;;;;;;;9.70;3.33;;;;;;;;;;4914580;29;20555;-75
2021/03/08 03:48:40;;;;;;;12.50;3.03;;;;;;;;;;4915430;29;20052;-75
2021/03/08 03:51:07;;;;;;;8.88;2.67;;;;;;;;;;4914857;29;20136;-76
2021/03/08 03:53:36;;;;;;;5.28;2.88;;;;;;;;;;4915147;29;20715;-76
2021/03/08 03:56:06;;;;;;;7.20;3.30;;;;;;;;;;4914293;29;20048;-76
2021/03/08 03:58:39;;;;;;;11.90;2.95;;;;;;;;;;4914146;29;20143;-76
2021/03/08 04:01:12;;;;;;;8.20;2.85;;;;;;;;;;4913728;29;20076;-76
2021/03/08 04:03:45;;;;;;;6.47;2.67;;;;;;;;;;4914106;29;20135;-76
2021/03/08 04:06:13;;;;;;;10.15;2.72;;;;;;;;;;4911853;29;20135;-75
2021/03/08 04:08:44;;;;;;;7.38;2.53;;;;;;;;;;4912384;29;20060;-76
2021/03/08 04:11:13;;;;;;;18.35;4.13;;;;;;;;;;4912849;29;20119;-75
2021/03/08 04:13:40;;;;;;;16.58;3.63;;;;;;;;;;4911344;29;20083;-75
2021/03/08 04:16:08;;;;;;;15.07;4.18;;;;;;;;;;4911289;29;20052;-75
2021/03/08 04:18:35;;;;;;;6.15;3.30;;;;;;;;;;4913402;29;20059;-75
2021/03/08 04:21:02;;;;;;;17.95;3.63;;;;;;;;;;4913504;29;20187;-75
2021/03/08 04:23:29;;;;;;;5.93;3.10;;;;;;;;;;4896272;29;20052;-75
2021/03/08 04:25:56;;;;;;;8.73;3.00;;;;;;;;;;4910687;29;20131;-75
2021/03/08 04:28:23;;;;;;;6.60;2.80;;;;;;;;;;4912866;29;20127;-75
2021/03/08 04:30:50;;;;;;;9.15;3.13;;;;;;;;;;4910684;29;20055;-76
2021/03/08 04:33:18;;;;;;;7.60;3.08;;;;;;;;;;4911640;29;20104;-75
2021/03/08 04:35:46;;;;;;;14.07;3.85;;;;;;;;;;4911612;29;20059;-76
2021/03/08 04:38:13;;;;;;;8.07;3.35;;;;;;;;;;4911238;29;20155;-76
2021/03/08 04:40:40;;;;;;;12.68;3.13;;;;;;;;;;4911093;29;20149;-76
2021/03/08 04:43:07;;;;;;;12.02;3.13;;;;;;;;;;4905067;29;20135;-76
2021/03/08 04:45:34;;;;;;;16.95;4.00;;;;;;;;;;4910598;29;20087;-75
2021/03/08 04:48:03;;;;;;;18.95;3.78;;;;;;;;;;4911485;29;20104;-77
2021/03/08 04:50:30;;;;;;;9.27;3.10;;;;;;;;;;4911161;29;20094;-77
2021/03/08 04:52:57;;;;;;;11.93;3.13;;;;;;;;;;4912554;29;20087;-77
2021/03/08 04:55:27;;;;;;;7.70;3.28;;;;;;;;;;4903997;29;20056;-77
2021/03/08 04:57:53;;;;;;;11.90;2.65;;;;;;;;;;4913101;29;20120;-77
2021/03/08 05:00:21;;;;;;;13.93;3.78;;;;;;;;;;4911736;29;20103;-76
2021/03/08 05:02:48;;;;;;;11.50;2.75;;;;;;;;;;4908428;29;20059;-76
2021/03/08 05:05:17;;;;;;;8.07;3.42;;;;;;;;;;4912318;29;20155;-76
2021/03/08 05:07:44;;;;;;;6.22;2.88;;;;;;;;;;4913640;29;20079;-76
2021/03/08 05:10:15;;;;;;;6.32;2.80;;;;;;;;;;4912506;29;20088;-76
2021/03/08 05:12:42;;;;;;;10.77;3.55;;;;;;;;;;4913417;29;20104;-76
2021/03/08 05:15:09;;;;;;;11.23;2.88;;;;;;;;;;4912354;29;20119;-76
2021/03/08 05:17:37;;;;;;;10.48;3.47;;;;;;;;;;4911475;29;20068;-76
2021/03/08 05:20:09;;;;;;;15.95;3.17;;;;;;;;;;4911201;29;20056;-76
2021/03/08 05:22:36;;;;;;;9.63;2.70;;;;;;;;;;4911061;29;20689;-76
2021/03/08 05:25:03;;;;;;;17.83;3.55;;;;;;;;;;4911654;29;20092;-76
2021/03/08 05:27:30;;;;;;;10.65;3.08;;;;;;;;;;4910175;29;20139;-76
2021/03/08 05:29:59;;;;;;;10.13;3.15;;;;;;;;;;4912832;29;20044;-76
2021/03/08 05:32:37;;;;;;;18.40;3.63;;;;;;;;;;4912883;29;20100;-76
2021/03/08 05:35:04;;;;;;;10.25;3.58;;;;;;;;;;4910590;29;20111;-76
2021/03/08 05:37:31;;;;;;;8.75;3.20;;;;;;;;;;4910114;29;20493;-76
2021/03/08 05:39:59;;;;;;;8.57;3.38;;;;;;;;;;4911188;29;20112;-76
2021/03/08 05:42:27;;;;;;;14.00;3.83;;;;;;;;;;4912076;29;20063;-77
2021/03/08 05:45:01;;;;;;;13.25;4.43;;;;;;;;;;4910879;29;20090;-77
2021/03/08 05:47:34;;;;;;;19.60;3.78;;;;;;;;;;4908451;29;20153;-77
2021/03/08 05:50:04;;;;;;;9.50;3.47;;;;;;;;;;4913394;29;20045;-78
2021/03/08 05:52:50;;;;;;;9.20;4.60;;;;;;;;;;4912856;29;20052;-77
2021/03/08 05:55:35;;;;;;;11.95;3.13;;;;;;;;;;4899323;29;20461;-81
2021/03/08 05:58:08;;;;;;;;;;;;;;;;;;4914811;29;20134;-79
2021/03/08 06:00:34;;;;;;;17.75;3.97;;;;;;;;;;4913144;29;20388;-79
2021/03/08 06:03:03;;;;;;;18.75;4.35;;;;;;;;;;4914166;29;20056;-79
2021/03/08 06:05:49;;;;;;;13.57;4.00;;;;;;;;;;4913154;29;20663;-79
2021/03/08 06:08:39;;;;;;;11.57;3.70;;;;;;;;;;4914481;29;20134;-81
2021/03/08 06:11:07;;;;;;;15.68;4.20;;;;;;;;;;4912826;29;20087;-77
2021/03/08 06:13:45;;;;;;;9.93;4.38;;;;;;;;;;4911944;29;20084;-78
2021/03/08 06:16:16;;;;;;;8.57;4.20;;;;;;;;;;4911936;29;20119;-77
2021/03/08 06:18:46;;;;;;;12.52;4.00;;;;;;;;;;4910731;29;20060;-75
2021/03/08 06:21:14;;;;;;;18.02;4.90;;;;;;;;;;4911002;29;20067;-76
2021/03/08 06:23:42;;;;;;;13.10;3.97;;;;;;;;;;4914743;29;20155;-78
2021/03/08 06:26:09;;;;;;;17.02;4.75;;;;;;;;;;4915029;29;20106;-77
2021/03/08 06:28:36;;;;;;;25.13;5.75;;;;;;;;;;4915170;29;20044;-77
2021/03/08 06:31:03;;;;;;;26.10;7.50;;;;;;;;;;4904653;29;20144;-80
2021/03/08 06:33:50;;;;;;;14.10;4.22;;;;;;;;;;4916683;29;20052;-80
2021/03/08 06:36:20;;;;;;;15.45;4.07;;;;;;;;;;4917022;29;20131;-81
2021/03/08 06:38:47;;;;;;;29.25;5.03;;;;;;;;;;4897776;29;20108;-81
2021/03/08 06:41:14;;;;;;;11.95;5.05;;;;;;;;;;4898274;29;20167;-81
2021/03/08 06:43:41;;;;;;;11.13;4.97;;;;;;;;;;4898962;29;20119;-81
2021/03/08 06:46:08;;;;;;;11.82;4.05;;;;;;;;;;4897607;29;20131;-81
2021/03/08 06:48:35;;;;;;;13.65;5.75;;;;;;;;;;4899508;29;20060;-81
2021/03/08 06:51:09;;;;;;;21.90;5.75;;;;;;;;;;4899506;29;20080;-81
2021/03/08 06:53:38;;;;;;;16.15;5.78;;;;;;;;;;4897811;29;20049;-80
2021/03/08 06:56:12;;;;;;;18.05;5.30;;;;;;;;;;4897761;29;20206;-80
2021/03/08 06:58:40;;;;;;;15.13;5.78;;;;;;;;;;4898942;29;20498;-80
2021/03/08 07:01:28;;;;;;;18.35;6.68;;;;;;;;;;4898018;29;20078;-81
2021/03/08 07:04:13;;;;;;;20.58;6.20;;;;;;;;;;4897435;29;20684;-80
2021/03/08 07:06:39;;;;;;;14.05;5.50;;;;;;;;;;4898149;29;20108;-80
2021/03/08 07:09:12;;;;;;;22.65;6.43;;;;;;;;;;4896494;29;20139;-79
2021/03/08 07:11:39;;;;;;;16.38;6.35;;;;;;;;;;4897795;29;20112;-80
2021/03/08 07:14:26;;;;;;;18.35;6.97;;;;;;;;;;4897132;29;20083;-81
2021/03/08 07:16:53;;;;;;;15.90;6.65;;;;;;;;;;4915759;29;20082;-81
2021/03/08 07:19:20;;;;;;;20.23;6.40;;;;;;;;;;4916159;29;20780;-82
2021/03/08 07:21:51;;;;;;;19.85;6.70;;;;;;;;;;4912839;29;20678;-82
2021/03/08 07:24:19;;;;;;;15.30;6.15;;;;;;;;;;4912508;29;20040;-81
2021/03/08 07:26:56;;;;;;;21.65;6.30;;;;;;;;;;4915054;29;20052;-82
2021/03/08 07:29:32;;;;;;;15.68;5.80;;;;;;;;;;4916429;29;20056;-82
2021/03/08 07:31:59;;;;;;;18.42;5.22;;;;;;;;;;4913055;29;20090;-82
2021/03/08 07:34:53;;;;;;;16.50;5.55;;;;;;;;;;4897052;29;20660;-82
2021/03/08 07:37:21;;;;;;;16.25;5.93;;;;;;;;;;4915943;29;20048;-82
2021/03/08 07:39:53;;;;;;;20.42;5.55;;;;;;;;;;4909081;29;20058;-80
2021/03/08 07:42:20;;;;;;;14.05;5.25;;;;;;;;;;4896940;29;20089;-80
2021/03/08 07:45:03;;;;;;;17.40;6.13;;;;;;;;;;4897514;29;20402;-83
2021/03/08 07:47:30;;;;;;;26.85;6.78;;;;;;;;;;4915217;29;20127;-80
2021/03/08 07:49:57;;;;;;;21.52;5.88;;;;;;;;;;4915402;29;20044;-80
2021/03/08 07:52:23;;;;;;;18.23;6.32;;;;;;;;;;4916426;29;20048;-80
2021/03/08 07:54:51;;;;;;;17.38;7.10;;;;;;;;;;4916325;29;20087;-81
2021/03/08 07:57:19;;;;;;;15.80;6.43;;;;;;;;;;4917114;29;20055;-80
2021/03/08 07:59:45;;;;;;;22.90;6.68;;;;;;;;;;4916383;29;20080;-81
2021/03/08 08:02:12;;;;;;;21.65;6.75;;;;;;;;;;4915533;29;20076;-77
2021/03/08 08:04:58;;;;;;;23.17;5.22;;;;;;;;;;4913586;29;20063;-77
2021/03/08 08:07:26;;;;;;;22.42;6.30;;;;;;;;;;4914211;29;20066;-77
2021/03/08 08:09:54;;;;;;;51.08;6.90;;;;;;;;;;4913385;29;20044;-77
2021/03/08 08:12:32;;;;;;;38.38;5.60;;;;;;;;;;4913793;29;20055;-78
2021/03/08 08:15:01;;;;;;;27.60;4.25;;;;;;;;;;4898658;29;20064;-79
2021/03/08 08:17:28;;;;;;;23.27;4.40;;;;;;;;;;4894883;29;20080;-79
2021/03/08 08:19:56;;;;;;;19.73;3.55;;;;;;;;;;4896993;29;20575;-78
2021/03/08 08:22:24;;;;;;;13.82;3.08;;;;;;;;;;4912616;29;20048;-78
2021/03/08 08:24:54;;;;;;;10.40;2.53;;;;;;;;;;4912917;29;20576;-78
2021/03/08 08:27:21;;;;;;;15.35;2.80;;;;;;;;;;4056687;29;10000990;-78
2021/03/08 08:29:49;;;;;;;10.15;2.65;;;;;;;;;;4911802;29;20516;-78
2021/03/08 08:32:16;;;;;;;10.05;2.80;;;;;;;;;;4910648;29;20148;-78
2021/03/08 08:34:44;;;;;;;7.38;2.80;;;;;;;;;;4912376;29;20048;-81
2021/03/08 08:37:11;;;;;;;10.18;2.35;;;;;;;;;;4912958;29;20095;-79
2021/03/08 08:39:42;;;;;;;11.55;3.00;;;;;;;;;;4913255;29;20186;-79
2021/03/08 08:42:36;;;;;;;5.63;1.90;;;;;;;;;;4907434;29;20060;-79
2021/03/08 08:45:23;;;;;;;4.25;2.35;;;;;;;;;;4910386;29;20115;-79
2021/03/08 08:48:16;;;;;;;9.27;2.70;;;;;;;;;;4913344;29;20096;-78
2021/03/08 08:50:50;;;;;;;6.90;2.00;;;;;;;;;;4912617;29;20059;-79
2021/03/08 08:53:31;;;;;;;7.25;1.77;;;;;;;;;;4911333;29;20115;-78
2021/03/08 08:55:58;;;;;;;10.23;1.65;;;;;;;;;;4911938;29;20056;-78
2021/03/08 08:58:26;;;;;;;5.47;1.67;;;;;;;;;;4912566;29;20489;-81
2021/03/08 09:01:19;;;;;;;7.10;1.40;;;;;;;;;;4913398;29;20060;-81
2021/03/08 09:04:00;;;;;;;7.82;1.88;;;;;;;;;;4912115;29;20056;-78
2021/03/08 09:07:04;;;;;;;6.82;1.90;;;;;;;;;;4894401;29;20086;-78
2021/03/08 09:09:33;;;;;;;9.73;2.28;;;;;;;;;;4892442;29;20174;-78
2021/03/08 09:12:10;;;;;;;8.50;1.67;;;;;;;;;;4923943;29;20104;-79
2021/03/08 09:15:04;;;;;;;9.18;2.10;;;;;;;;;;4912137;29;20079;-79
2021/03/08 09:17:47;;;;;;;10.43;2.65;;;;;;;;;;4911062;29;20059;-78
2021/03/08 09:20:14;;;;;;;5.25;1.92;;;;;;;;;;4911586;29;20056;-78
2021/03/08 09:22:49;;;;;;;10.38;2.72;;;;;;;;;;4912216;29;20113;-78
2021/03/08 09:25:16;;;;;;;;;;;;;;;;;;4911903;29;20407;-79
2021/03/08 09:27:47;;;;;;;9.60;2.05;;;;;;;;;;4911497;29;19998;-79
2021/03/08 09:30:16;;;;;;;9.52;2.13;;;;;;;;;;4912502;29;20059;-78
2021/03/08 09:32:54;;;;;;;7.97;1.75;;;;;;;;;;4912553;29;20056;-79
2021/03/08 09:35:23;;;;;;;7.28;2.53;;;;;;;;;;4911893;29;20052;-79
2021/03/08 09:37:52;;;;;;;9.55;2.00;;;;;;;;;;4911425;29;20135;-79
2021/03/08 09:40:21;;;;;;;4.93;1.80;;;;;;;;;;4912290;29;20106;-79
2021/03/08 09:42:48;;;;;;;9.27;1.83;;;;;;;;;;4910983;29;20111;-79
2021/03/08 09:45:15;;;;;;;9.40;2.13;;;;;;;;;;4910243;29;20084;-79
2021/03/08 09:47:42;;;;;;;12.75;2.58;;;;;;;;;;4910774;29;20132;-78
2021/03/08 09:50:27;;;;;;;10.85;2.53;;;;;;;;;;4911507;29;20052;-79
2021/03/08 09:52:55;;;;;;;7.97;2.17;;;;;;;;;;4910837;29;20135;-79
2021/03/08 09:55:23;;;;;;;8.32;2.15;;;;;;;;;;4911355;29;20076;-78
2021/03/08 09:57:50;;;;;;;10.80;2.03;;;;;;;;;;4911417;29;20048;-78
2021/03/08 10:00:18;;;;;;;9.00;1.98;;;;;;;;;;4913366;29;20736;-78
2021/03/08 10:02:46;;;;;;;11.73;2.40;;;;;;;;;;4913420;29;20111;-79
2021/03/08 10:05:18;;;;;;;8.18;2.20;;;;;;;;;;4913666;29;20516;-79
2021/03/08 10:07:52;;;;;;;10.35;2.08;;;;;;;;;;4915827;29;20147;-79
2021/03/08 10:10:19;;;;;;;9.50;2.97;;;;;;;;;;4914120;29;20140;-79
2021/03/08 10:12:46;;;;;;;8.80;2.15;;;;;;;;;;4914677;29;20583;-78
2021/03/08 10:15:13;;;;;;;7.85;2.08;;;;;;;;;;4909993;29;20052;-78
2021/03/08 10:17:58;;;;;;;5.70;1.85;;;;;;;;;;4912856;29;20052;-78
2021/03/08 10:20:25;;;;;;;18.70;2.30;;;;;;;;;;4911940;29;20056;-78
2021/03/08 10:22:54;;;;;;;8.38;1.83;;;;;;;;;;4908646;29;20059;-78
2021/03/08 10:25:25;;;;;;;19.90;7.25;;;;;;;;;;4914463;29;20052;-77
2021/03/08 10:27:56;;;;;;;12.55;3.03;;;;;;;;;;4913658;29;20048;-78
2021/03/08 10:30:24;;;;;;;9.70;2.42;;;;;;;;;;4911893;29;20068;-78
2021/03/08 10:32:53;;;;;;;9.73;2.65;;;;;;;;;;4911049;29;20123;-78
2021/03/08 10:35:20;;;;;;;9.88;2.28;;;;;;;;;;4912640;29;20176;-78
2021/03/08 10:37:47;;;;;;;7.63;1.88;;;;;;;;;;4912605;29;20147;-78
2021/03/08 10:40:16;;;;;;;16.27;3.03;;;;;;;;;;4913344;29;20079;-78
2021/03/08 10:42:44;;;;;;;5.25;1.98;;;;;;;;;;4914091;29;20052;-78
2021/03/08 10:45:11;;;;;;;3.92;1.65;;;;;;;;;;4913212;29;20601;-78
2021/03/08 10:47:38;;;;;;;7.85;2.10;;;;;;;;;;4912985;29;20123;-78
2021/03/08 10:50:05;;;;;;;10.02;2.25;;;;;;;;;;4914591;29;20084;-78
2021/03/08 10:52:32;;;;;;;15.52;2.75;;;;;;;;;;4914553;29;20052;-77
2021/03/08 10:54:59;;;;;;;8.80;1.60;;;;;;;;;;4911619;29;20141;-77
2021/03/08 10:57:27;;;;;;;12.68;2.13;;;;;;;;;;4913956;29;20154;-77
2021/03/08 10:59:55;;;;;;;10.63;2.45;;;;;;;;;;4913775;29;20072;-77
2021/03/08 11:02:22;;;;;;;6.35;2.00;;;;;;;;;;4913057;29;20465;-79
2021/03/08 11:04:52;;;;;;;6.10;1.63;;;;;;;;;;4912203;29;20060;-76
2021/03/08 11:07:32;;;;;;;6.43;1.55;;;;;;;;;;4912391;29;20048;-76
2021/03/08 11:09:58;;;;;;;9.68;2.53;;;;;;;;;;4913439;29;20570;-76
2021/03/08 11:12:25;;;;;;;9.32;3.40;;;;;;;;;;4913918;29;20056;-76
2021/03/08 11:14:54;;;;;;;12.43;2.30;;;;;;;;;;4914293;29;20639;-77
2021/03/08 11:17:34;;;;;;;14.68;2.10;;;;;;;;;;4913480;29;20052;-78
2021/03/08 11:20:05;;;;;;;7.20;1.80;;;;;;;;;;4913808;29;20179;-78
2021/03/08 11:22:31;;;;;;;7.32;2.00;;;;;;;;;;4914029;29;20052;-77
2021/03/08 11:24:58;;;;;;;6.40;1.77;;;;;;;;;;4913956;29;20172;-78
2021/03/08 11:27:25;;;;;;;4.38;2.55;;;;;;;;;;4913440;29;20048;-77
2021/03/08 11:30:11;;;;;;;15.60;6.55;;;;;;;;;;4901204;29;20234;-77
2021/03/08 11:32:39;;;;;;;8.48;4.30;;;;;;;;;;4895157;29;20565;-78
2021/03/08 11:35:30;;;;;;;13.20;7.28;;;;;;;;;;4892854;29;20060;-77
2021/03/08 11:38:08;;;;;;;5.53;1.08;;;;;;;;;;4903633;29;20056;-78
2021/03/08 11:40:36;;;;;;;5.80;1.40;;;;;;;;;;4911287;29;20052;-77
2021/03/08 11:43:03;;;;;;;5.47;2.28;;;;;;;;;;4913401;29;20381;-77
2021/03/08 11:45:30;;;;;;;5.40;1.20;;;;;;;;;;4913689;29;20067;-78
2021/03/08 11:47:58;;;;;;;6.03;3.00;;;;;;;;;;4912886;29;20484;-77
2021/03/08 11:50:26;;;;;;;8.27;3.08;;;;;;;;;;4912985;29;20541;-77
2021/03/08 11:52:53;;;;;;;6.05;3.10;;;;;;;;;;4913585;29;20074;-78
2021/03/08 11:55:21;;;;;;;10.15;3.17;;;;;;;;;;4912968;29;20142;-77
2021/03/08 11:57:48;;;;;;;7.55;2.25;;;;;;;;;;4911681;29;20552;-77
2021/03/08 12:00:17;;;;;;;4.30;2.65;;;;;;;;;;4910070;29;20056;-77
2021/03/08 12:02:43;;;;;;;6.18;2.92;;;;;;;;;;4911666;29;20056;-77
2021/03/08 12:05:10;;;;;;;6.97;2.38;;;;;;;;;;4910145;29;20171;-77
2021/03/08 12:07:37;;;;;;;9.90;2.85;;;;;;;;;;4910143;29;20648;-77
2021/03/08 12:10:05;;;;;;;13.52;2.60;;;;;;;;;;4910776;29;20812;-78
2021/03/08 12:12:32;;;;;;;8.45;2.60;;;;;;;;;;4911766;29;20131;-78
2021/03/08 12:15:02;;;;;;;4.90;2.40;;;;;;;;;;4910975;29;20060;-78
2021/03/08 12:17:28;;;;;;;4.03;2.08;;;;;;;;;;4911968;29;20107;-78
2021/03/08 12:19:56;;;;;;;6.93;2.10;;;;;;;;;;4909983;29;20044;-78
2021/03/08 12:22:23;;;;;;;8.43;2.13;;;;;;;;;;4910342;29;20132;-76
2021/03/08 12:24:49;;;;;;;6.30;1.77;;;;;;;;;;4912081;29;20128;-76
2021/03/08 12:27:16;;;;;;;10.27;4.13;;;;;;;;;;4912657;29;20083;-77
2021/03/08 12:29:43;;;;;;;6.05;2.65;;;;;;;;;;4911469;29;20060;-77
2021/03/08 12:32:10;;;;;;;13.32;2.42;;;;;;;;;;4909794;29;20059;-77
2021/03/08 12:34:37;;;;;;;5.85;1.15;;;;;;;;;;4910804;29;20051;-77
2021/03/08 12:37:03;;;;;;;5.28;2.00;;;;;;;;;;4908777;29;20083;-78
2021/03/08 12:39:31;;;;;;;5.78;2.00;;;;;;;;;;4910055;29;20143;-79
2021/03/08 12:41:58;;;;;;;3.80;1.23;;;;;;;;;;4912493;29;20536;-80
2021/03/08 12:44:24;;;;;;;2.95;1.33;;;;;;;;;;4914019;29;20044;-80
2021/03/08 12:46:51;;;;;;;8.30;1.92;;;;;;;;;;4911067;29;20091;-76
2021/03/08 12:49:18;;;;;;;2.92;1.42;;;;;;;;;;4910707;29;20115;-78
2021/03/08 12:51:48;;;;;;;2.25;1.40;;;;;;;;;;4910938;29;20052;-79
2021/03/08 12:54:15;;;;;;;3.40;0.85;;;;;;;;;;4909026;29;20139;-79
2021/03/08 12:56:42;;;;;;;11.30;1.75;;;;;;;;;;4911245;29;20095;-79
2021/03/08 12:59:08;;;;;;;7.65;1.83;;;;;;;;;;4906008;29;20076;-79
2021/03/08 13:01:35;;;;;;;18.17;8.02;;;;;;;;;;4890315;29;20084;-78
2021/03/08 13:04:02;;;;;;;11.35;6.40;;;;;;;;;;4891169;29;20055;-79
2021/03/08 13:06:29;;;;;;;8.15;2.53;;;;;;;;;;4895076;29;20537;-79
2021/03/08 13:09:04;;;;;;;3.60;1.08;;;;;;;;;;4911579;29;20064;-76
2021/03/08 13:11:31;;;;;;;6.07;1.05;;;;;;;;;;4909025;29;20052;-77
2021/03/08 13:13:58;;;;;;;5.93;0.90;;;;;;;;;;4905557;29;20079;-74
2021/03/08 13:16:25;;;;;;;2.05;1.08;;;;;;;;;;4911345;29;20139;-74
2021/03/08 13:18:52;;;;;;;9.55;1.58;;;;;;;;;;4910681;29;20517;-74
2021/03/08 13:21:19;;;;;;;15.43;2.33;;;;;;;;;;4911635;29;20545;-74
2021/03/08 13:23:45;;;;;;;2.30;0.75;;;;;;;;;;4912246;29;20142;-74
2021/03/08 13:26:12;;;;;;;0.98;0.60;;;;;;;;;;4909917;29;20135;-77
2021/03/08 13:28:39;;;;;;;12.18;1.20;;;;;;;;;;4910822;29;20082;-78
2021/03/08 13:31:06;;;;;;;9.18;1.40;;;;;;;;;;4911856;29;20087;-77
2021/03/08 13:33:33;;;;;;;2.15;0.88;;;;;;;;;;4911554;29;20108;-76
2021/03/08 13:36:00;;;;;;;1.60;0.70;;;;;;;;;;4911519;29;20063;-76
2021/03/08 13:38:26;;;;;;;7.00;2.00;;;;;;;;;;4911815;29;20047;-77
2021/03/08 13:40:53;;;;;;;5.18;1.60;;;;;;;;;;4911302;29;20452;-76
2021/03/08 13:43:20;;;;;;;9.35;3.75;;;;;;;;;;4911212;29;20742;-75
2021/03/08 13:45:47;;;;;;;10.32;2.67;;;;;;;;;;4911730;29;20072;-76
2021/03/08 13:48:14;;;;;;;5.20;1.33;;;;;;;;;;4911818;29;20134;-76
2021/03/08 13:50:42;;;;;;;3.13;1.40;;;;;;;;;;4911080;29;20075;-76
2021/03/08 13:53:09;;;;;;;8.15;2.33;;;;;;;;;;4911578;29;20143;-76
2021/03/08 13:55:36;;;;;;;2.25;1.40;;;;;;;;;;4911006;29;20119;-76
2021/03/08 13:58:02;;;;;;;10.05;1.55;;;;;;;;;;4910884;29;20139;-76
2021/03/08 14:00:30;;;;;;;2.72;0.95;;;;;;;;;;4911276;29;20056;-76
2021/03/08 14:02:57;;;;;;;3.97;2.65;;;;;;;;;;4911707;29;20458;-76
2021/03/08 14:05:24;;;;;;;9.73;5.25;;;;;;;;;;4909870;29;20044;-76
2021/03/08 14:07:53;;;;;;;4.72;2.65;;;;;;;;;;4909608;29;20080;-77
2021/03/08 14:10:20;;;;;;;24.40;13.15;;;;;;;;;;4907615;29;20060;-76
2021/03/08 14:12:47;;;;;;;7.82;1.80;;;;;;;;;;4910187;29;20123;-76
2021/03/08 14:15:14;;;;;;;10.85;1.63;;;;;;;;;;4911103;29;20051;-76
2021/03/08 14:17:41;;;;;;;7.75;0.70;;;;;;;;;;4910808;29;20040;-75
2021/03/08 14:20:08;;;;;;;2.63;1.05;;;;;;;;;;4916917;29;20052;-76
2021/03/08 14:22:36;;;;;;;6.47;2.10;;;;;;;;;;4915110;29;20044;-76
2021/03/08 14:25:04;;;;;;;2.97;1.67;;;;;;;;;;4910041;29;20673;-76
2021/03/08 14:27:31;;;;;;;2.35;1.13;;;;;;;;;;4911116;29;20071;-76
2021/03/08 14:29:58;;;;;;;3.33;1.02;;;;;;;;;;4910441;29;20144;-76
2021/03/08 14:32:25;;;;;;;6.25;0.90;;;;;;;;;;4911009;29;20143;-77
2021/03/08 14:34:58;;;;;;;8.93;0.98;;;;;;;;;;4911062;29;20134;-75
2021/03/08 14:37:24;;;;;;;1.50;0.57;;;;;;;;;;4908965;29;20075;-76
2021/03/08 14:39:51;;;;;;;2.95;0.82;;;;;;;;;;4908841;29;20084;-77
2021/03/08 14:42:18;;;;;;;7.68;2.20;;;;;;;;;;4909580;29;20099;-76
2021/03/08 14:44:45;;;;;;;20.05;6.70;;;;;;;;;;4913364;29;20052;-76
2021/03/08 14:47:12;;;;;;;10.05;3.00;;;;;;;;;;4911766;29;20054;-77
2021/03/08 14:49:38;;;;;;;11.68;3.72;;;;;;;;;;4913749;29;20614;-77
2021/03/08 14:52:06;;;;;;;5.95;1.42;;;;;;;;;;4914081;29;20052;-77